createdAt,value
2022-12-25T00:01:13.468Z,3.51
2022-12-25T00:03:48.078Z,3.50
2022-12-25T00:06:15.172Z,3.49
2022-12-25T00:08:42.579Z,3.50
2022-12-25T00:11:15.198Z,3.48
2022-12-25T00:13:42.560Z,3.47
2022-12-25T00:16:16.962Z,3.42
2022-12-25T00:18:44.931Z,3.43
2022-12-25T00:21:13.017Z,3.40
2022-12-25T00:23:40.161Z,3.40
2022-12-25T00:26:12.136Z,3.40
2022-12-25T00:28:40.847Z,3.42
2022-12-25T00:31:13.716Z,3.44
2022-12-25T00:33:43.050Z,3.46
2022-12-25T00:36:11.164Z,3.47
2022-12-25T00:38:39.202Z,3.47
2022-12-25T00:41:11.309Z,3.47
2022-12-25T00:43:38.301Z,3.47
2022-12-25T00:46:06.566Z,3.47
2022-12-25T00:48:34.345Z,3.47
2022-12-25T00:51:07.107Z,3.43
2022-12-25T00:53:34.148Z,3.39
2022-12-25T00:56:04.724Z,3.35
2022-12-25T00:58:33.390Z,3.33
2022-12-25T01:01:02.240Z,3.32
2022-12-25T01:03:29.387Z,3.31
2022-12-25T01:06:02.018Z,3.30
2022-12-25T01:08:31.995Z,3.29
2022-12-25T01:11:01.722Z,3.28
2022-12-25T01:13:30.230Z,3.27
2022-12-25T01:15:57.461Z,3.27
2022-12-25T01:18:25.090Z,3.27
2022-12-25T01:20:53.739Z,3.29
2022-12-25T01:23:20.854Z,3.32
2022-12-25T01:25:47.743Z,3.34
2022-12-25T01:28:15.808Z,3.37
2022-12-25T01:30:50.051Z,3.39
2022-12-25T01:33:17.226Z,3.41
2022-12-25T01:35:44.165Z,3.43
2022-12-25T01:38:11.257Z,3.45
2022-12-25T01:40:38.657Z,3.46
2022-12-25T01:43:33.716Z,3.48
2022-12-25T01:46:03.335Z,3.52
2022-12-25T01:48:37.134Z,3.54
2022-12-25T01:51:29.718Z,3.55
2022-12-25T01:54:01.891Z,3.55
2022-12-25T01:56:31.335Z,3.54
2022-12-25T01:59:03.128Z,3.54
2022-12-25T02:01:31.980Z,3.55
2022-12-25T02:04:05.300Z,3.58
2022-12-25T02:06:34.169Z,3.61
2022-12-25T02:09:01.556Z,3.64
2022-12-25T02:11:47.196Z,3.64
2022-12-25T02:14:14.310Z,3.64
2022-12-25T02:16:57.652Z,3.61
2022-12-25T02:19:46.629Z,3.60
2022-12-25T02:22:31.583Z,3.60
2022-12-25T02:25:27.186Z,3.61
2022-12-25T02:28:11.841Z,3.61
2022-12-25T02:30:43.901Z,3.64
2022-12-25T02:33:38.376Z,3.64
2022-12-25T02:36:10.904Z,3.64
2022-12-25T02:39:03.442Z,3.63
2022-12-25T02:41:36.848Z,3.66
2022-12-25T02:44:28.220Z,3.68
2022-12-25T02:47:13.735Z,3.73
2022-12-25T02:50:01.131Z,3.78
2022-12-25T02:52:49.462Z,3.81
2022-12-25T02:55:42.564Z,3.83
2022-12-25T02:58:32.699Z,3.84
2022-12-25T03:01:24.199Z,3.85
2022-12-25T03:04:16.133Z,3.84
2022-12-25T03:06:58.268Z,3.88
2022-12-25T03:09:49.225Z,3.90
2022-12-25T03:12:28.301Z,3.92
2022-12-25T03:15:13.794Z,3.93
2022-12-25T03:17:40.853Z,3.93
2022-12-25T03:20:26.775Z,3.93
2022-12-25T03:23:12.541Z,3.95
2022-12-25T03:25:59.023Z,3.97
2022-12-25T03:28:26.742Z,3.99
2022-12-25T03:31:19.244Z,4.01
2022-12-25T03:34:10.697Z,4.01
2022-12-25T03:37:06.351Z,4.01
2022-12-25T03:39:52.849Z,4.01
2022-12-25T03:42:47.180Z,4.02
2022-12-25T03:45:44.722Z,4.04
2022-12-25T03:48:12.806Z,4.06
2022-12-25T03:51:10.169Z,4.07
2022-12-25T03:54:06.232Z,4.07
2022-12-25T03:56:55.695Z,4.06
2022-12-25T03:59:42.256Z,4.05
2022-12-25T04:02:28.195Z,4.06
2022-12-25T04:05:13.865Z,4.07
2022-12-25T04:07:59.180Z,4.11
2022-12-25T04:10:44.701Z,4.13
2022-12-25T04:13:30.124Z,4.13
2022-12-25T04:16:15.653Z,4.12
2022-12-25T04:19:01.040Z,4.11
2022-12-25T04:21:46.349Z,4.10
2022-12-25T04:24:31.644Z,4.11
2022-12-25T04:27:16.707Z,4.13
2022-12-25T04:30:02.519Z,4.15
2022-12-25T04:32:48.473Z,4.15
2022-12-25T04:35:33.820Z,4.14
2022-12-25T04:38:00.660Z,4.13
2022-12-25T04:40:27.524Z,4.12
2022-12-25T04:42:54.270Z,4.13
2022-12-25T04:45:21.024Z,4.15
2022-12-25T04:47:47.823Z,4.16
2022-12-25T04:50:14.517Z,4.17
2022-12-25T04:52:41.689Z,4.18
2022-12-25T04:55:10.002Z,4.18
2022-12-25T04:57:37.155Z,4.18
2022-12-25T05:00:05.056Z,4.18
2022-12-25T05:02:31.950Z,4.17
2022-12-25T05:04:58.927Z,4.20
2022-12-25T05:07:26.143Z,4.21
2022-12-25T05:09:52.812Z,4.24
2022-12-25T05:12:19.675Z,4.28
2022-12-25T05:14:46.527Z,4.30
2022-12-25T05:17:13.323Z,4.31
2022-12-25T05:19:40.044Z,4.31
2022-12-25T05:22:06.774Z,4.31
2022-12-25T05:24:33.523Z,4.33
2022-12-25T05:27:00.327Z,4.34
2022-12-25T05:29:27.197Z,4.36
2022-12-25T05:31:54.271Z,4.38
2022-12-25T05:34:21.064Z,4.40
2022-12-25T05:36:47.816Z,4.38
2022-12-25T05:39:14.542Z,4.38
2022-12-25T05:41:41.412Z,4.40
2022-12-25T05:44:08.192Z,4.40
2022-12-25T05:46:35.088Z,4.42
2022-12-25T05:49:02.310Z,4.43
2022-12-25T05:51:30.246Z,4.44
2022-12-25T05:53:57.372Z,4.44
2022-12-25T05:56:24.132Z,4.45
2022-12-25T05:58:50.958Z,4.44
2022-12-25T06:01:21.304Z,4.42
2022-12-25T06:03:48.332Z,4.44
2022-12-25T06:06:15.195Z,4.47
2022-12-25T06:08:42.417Z,4.48
2022-12-25T06:11:10.130Z,4.49
2022-12-25T06:13:36.930Z,4.48
2022-12-25T06:16:09.086Z,4.46
2022-12-25T06:18:37.785Z,4.44
2022-12-25T06:21:09.487Z,4.44
2022-12-25T06:23:37.772Z,4.45
2022-12-25T06:26:06.674Z,4.47
2022-12-25T06:28:33.414Z,4.46
2022-12-25T06:31:06.662Z,4.43
2022-12-25T06:33:33.668Z,4.42
2022-12-25T06:36:05.299Z,4.45
2022-12-25T06:38:31.997Z,4.47
2022-12-25T06:41:04.108Z,4.49
2022-12-25T06:43:30.882Z,4.52
2022-12-25T06:46:03.066Z,4.56
2022-12-25T06:48:29.957Z,4.57
2022-12-25T06:50:56.775Z,4.57
2022-12-25T06:53:23.553Z,4.57
2022-12-25T06:55:50.325Z,4.58
2022-12-25T06:58:17.123Z,4.61
2022-12-25T07:00:43.888Z,4.63
2022-12-25T07:03:19.451Z,4.67
2022-12-25T07:05:46.761Z,4.70
2022-12-25T07:08:13.796Z,4.73
2022-12-25T07:10:40.596Z,4.76
2022-12-25T07:13:07.341Z,4.81
2022-12-25T07:15:34.441Z,4.85
2022-12-25T07:18:01.666Z,4.86
2022-12-25T07:20:29.476Z,4.88
2022-12-25T07:22:56.267Z,4.89
2022-12-25T07:25:23.002Z,4.91
2022-12-25T07:27:50.082Z,4.94
2022-12-25T07:30:16.821Z,4.97
2022-12-25T07:32:49.831Z,5.00
2022-12-25T07:35:16.988Z,5.03
2022-12-25T07:37:43.738Z,5.06
2022-12-25T07:40:10.644Z,5.07
2022-12-25T07:42:37.329Z,5.11
2022-12-25T07:45:05.493Z,5.15
2022-12-25T07:47:32.567Z,5.20
2022-12-25T07:49:59.314Z,5.23
2022-12-25T07:52:26.012Z,5.25
2022-12-25T07:54:52.762Z,5.25
2022-12-25T07:57:19.580Z,5.27
2022-12-25T07:59:46.329Z,5.29
2022-12-25T08:02:13.272Z,5.31
2022-12-25T08:04:41.407Z,5.31
2022-12-25T08:07:08.144Z,5.28
2022-12-25T08:09:35.146Z,5.28
2022-12-25T08:12:01.855Z,5.29
2022-12-25T08:14:29.137Z,5.29
2022-12-25T08:16:56.045Z,5.29
2022-12-25T08:19:22.753Z,5.29
2022-12-25T08:21:49.702Z,5.31
2022-12-25T08:24:16.468Z,5.38
2022-12-25T08:26:43.170Z,5.44
2022-12-25T08:29:09.916Z,5.51
2022-12-25T08:31:42.436Z,5.58
2022-12-25T08:34:13.264Z,5.66
2022-12-25T08:36:40.933Z,5.72
2022-12-25T08:39:08.260Z,5.74
2022-12-25T08:41:37.691Z,5.75
2022-12-25T08:44:05.695Z,5.76
2022-12-25T08:46:32.718Z,5.77
2022-12-25T08:48:59.543Z,5.78
2022-12-25T08:51:26.262Z,5.80
2022-12-25T08:53:57.641Z,5.82
2022-12-25T08:56:24.739Z,5.84
2022-12-25T08:58:51.570Z,5.87
2022-12-25T09:01:18.534Z,5.87
2022-12-25T09:03:45.345Z,5.86
2022-12-25T09:06:14.598Z,5.85
2022-12-25T09:08:48.029Z,5.87
2022-12-25T09:11:17.648Z,5.88
2022-12-25T09:13:44.457Z,5.90
2022-12-25T09:16:15.043Z,5.91
2022-12-25T09:18:42.015Z,5.93
2022-12-25T09:21:11.230Z,5.95
2022-12-25T09:23:38.566Z,5.95
2022-12-25T09:26:07.357Z,5.94
2022-12-25T09:28:34.470Z,5.92
2022-12-25T09:31:01.804Z,5.94
2022-12-25T09:33:28.584Z,5.96
2022-12-25T09:35:57.282Z,5.98
2022-12-25T09:38:25.048Z,6.01
2022-12-25T09:41:02.840Z,6.02
2022-12-25T09:43:33.427Z,6.01
2022-12-25T09:46:02.311Z,5.97
2022-12-25T09:48:32.991Z,5.95
2022-12-25T09:51:09.184Z,5.95
2022-12-25T09:53:40.237Z,5.94
2022-12-25T09:56:25.607Z,5.95
2022-12-25T09:58:54.170Z,6.00
2022-12-25T10:01:41.028Z,6.04
2022-12-25T10:04:07.835Z,6.08
2022-12-25T10:06:37.340Z,6.09
2022-12-25T10:09:29.862Z,6.08
2022-12-25T10:12:40.966Z,6.10
2022-12-25T10:15:07.694Z,6.10
2022-12-25T10:17:48.694Z,6.09
2022-12-25T10:20:26.868Z,6.07
2022-12-25T10:22:58.837Z,6.05
2022-12-25T10:25:25.700Z,6.03
2022-12-25T10:27:58.204Z,6.03
2022-12-25T10:30:27.630Z,6.04
2022-12-25T10:32:56.709Z,6.06
2022-12-25T10:35:27.115Z,6.07
2022-12-25T10:38:02.572Z,6.07
2022-12-25T10:41:09.319Z,6.06
2022-12-25T10:43:49.739Z,6.05
2022-12-25T10:46:17.778Z,6.04
2022-12-25T10:48:50.690Z,6.07
2022-12-25T10:51:36.677Z,6.07
2022-12-25T10:54:19.791Z,6.08
2022-12-25T10:57:16.818Z,6.09
2022-12-25T10:59:55.822Z,6.11
2022-12-25T11:02:34.293Z,6.13
2022-12-25T11:05:08.607Z,6.14
2022-12-25T11:07:46.066Z,6.17
2022-12-25T11:10:30.233Z,6.19
2022-12-25T11:12:58.687Z,6.21
2022-12-25T11:15:35.952Z,6.23
2022-12-25T11:18:27.963Z,6.23
2022-12-25T11:21:00.505Z,6.25
2022-12-25T11:23:30.133Z,6.27
2022-12-25T11:25:58.287Z,6.32
2022-12-25T11:28:27.315Z,6.37
2022-12-25T11:31:16.320Z,6.39
2022-12-25T11:34:19.721Z,6.37
2022-12-25T11:36:49.304Z,6.35
2022-12-25T11:39:27.137Z,6.35
2022-12-25T11:42:24.020Z,6.35
2022-12-25T11:45:59.016Z,6.35
2022-12-25T11:48:49.641Z,6.32
2022-12-25T11:51:19.203Z,6.31
2022-12-25T11:53:55.565Z,6.31
2022-12-25T11:56:28.699Z,6.32
2022-12-25T11:59:09.333Z,6.32
2022-12-25T12:02:01.584Z,6.33
2022-12-25T12:04:43.007Z,6.36
2022-12-25T12:07:28.460Z,6.34
2022-12-25T12:10:13.350Z,6.33
2022-12-25T12:12:55.496Z,6.37
2022-12-25T12:15:44.405Z,6.40
2022-12-25T12:18:26.709Z,6.42
2022-12-25T12:25:55.950Z,6.44
2022-12-25T12:55:39.829Z,6.57
2022-12-25T13:03:08.492Z,6.53
2022-12-25T13:10:44.617Z,6.50
2022-12-25T13:13:29.966Z,6.53
2022-12-25T13:15:57.590Z,6.55
2022-12-25T13:18:24.689Z,6.53
2022-12-25T13:21:09.569Z,6.50
2022-12-25T13:23:37.291Z,6.51
2022-12-25T13:26:17.361Z,6.52
2022-12-25T13:28:46.898Z,6.51
2022-12-25T13:31:18.186Z,6.52
2022-12-25T13:33:50.858Z,6.53
2022-12-25T13:36:17.968Z,6.54
2022-12-25T13:38:47.368Z,6.56
2022-12-25T13:41:42.533Z,6.56
2022-12-25T13:44:25.978Z,6.53
2022-12-25T13:46:52.790Z,6.53
2022-12-25T13:49:22.963Z,6.54
2022-12-25T13:51:50.628Z,6.56
2022-12-25T13:54:18.821Z,6.59
2022-12-25T13:56:51.452Z,6.59
2022-12-25T13:59:24.256Z,6.59
2022-12-25T14:01:53.193Z,6.59
2022-12-25T14:04:23.303Z,6.58
2022-12-25T14:06:52.102Z,6.56
2022-12-25T14:09:19.966Z,6.53
2022-12-25T14:11:51.801Z,6.53
2022-12-25T14:14:27.189Z,6.52
2022-12-25T14:16:56.477Z,6.53
2022-12-25T14:19:29.926Z,6.51
2022-12-25T14:22:02.425Z,6.49
2022-12-25T14:24:32.831Z,6.48
2022-12-25T14:27:02.472Z,6.49
2022-12-25T14:29:36.466Z,6.50
2022-12-25T14:32:06.277Z,6.48
2022-12-25T14:34:33.933Z,6.46
2022-12-25T14:37:03.743Z,6.45
2022-12-25T14:39:37.164Z,6.44
2022-12-25T14:42:20.798Z,6.43
2022-12-25T14:44:57.104Z,6.40
2022-12-25T14:47:24.439Z,6.38
2022-12-25T14:49:53.188Z,6.37
2022-12-25T14:52:38.918Z,6.36
2022-12-25T14:55:15.722Z,6.34
2022-12-25T14:57:48.144Z,6.33
2022-12-25T15:00:25.276Z,6.32
2022-12-25T15:02:55.373Z,6.31
2022-12-25T15:05:28.186Z,6.30
2022-12-25T15:08:04.202Z,6.29
2022-12-25T15:10:59.605Z,6.30
2022-12-25T15:13:19.324Z,6.31
2022-12-25T15:15:56.115Z,6.33
2022-12-25T15:18:27.429Z,6.33
2022-12-25T15:20:55.820Z,6.34
2022-12-25T15:23:24.736Z,6.36
2022-12-25T15:25:55.292Z,6.35
2022-12-25T15:28:22.425Z,6.35
2022-12-25T15:30:49.667Z,6.32
2022-12-25T15:33:18.922Z,6.32
2022-12-25T15:35:48.393Z,6.31
2022-12-25T15:38:15.350Z,6.31
2022-12-25T15:44:29.810Z,6.28
2022-12-25T15:47:01.464Z,6.28
2022-12-25T15:49:28.688Z,6.27
2022-12-25T15:51:55.730Z,6.26
2022-12-25T15:54:48.875Z,6.26
2022-12-25T15:57:28.456Z,6.27
2022-12-25T16:00:23.031Z,6.30
2022-12-25T16:02:50.549Z,6.31
2022-12-25T16:05:17.791Z,6.29
2022-12-25T16:07:45.339Z,6.29
2022-12-25T16:10:38.386Z,6.29
2022-12-25T16:13:06.242Z,6.30
2022-12-25T16:15:54.206Z,6.29
2022-12-25T16:18:32.552Z,6.28
2022-12-25T16:20:59.751Z,6.27
2022-12-25T16:23:26.925Z,6.26
2022-12-25T16:25:57.691Z,6.27
2022-12-25T16:29:42.965Z,6.28
2022-12-25T16:32:11.353Z,6.27
2022-12-25T16:34:40.751Z,6.26
2022-12-25T16:37:08.411Z,6.23
2022-12-25T16:39:36.780Z,6.21
2022-12-25T16:42:03.799Z,6.23
2022-12-25T16:44:30.695Z,6.25
2022-12-25T16:46:57.919Z,6.27
2022-12-25T16:49:29.139Z,6.28
2022-12-25T16:51:56.594Z,6.30
2022-12-25T16:54:30.091Z,6.28
2022-12-25T17:01:17.775Z,6.24
2022-12-25T17:03:46.755Z,6.24
2022-12-25T17:06:22.341Z,6.24
2022-12-25T17:08:58.476Z,6.24
2022-12-25T17:11:29.845Z,6.22
2022-12-25T17:14:01.998Z,6.21
2022-12-25T17:16:31.909Z,6.23
2022-12-25T17:19:01.881Z,6.26
2022-12-25T17:21:29.772Z,6.25
2022-12-25T17:24:02.344Z,6.21
2022-12-25T17:26:33.666Z,6.19
2022-12-25T17:29:00.822Z,6.19
2022-12-25T17:31:28.623Z,6.18
2022-12-25T17:33:55.904Z,6.13
2022-12-25T17:36:24.647Z,6.17
2022-12-25T17:38:52.845Z,6.15
2022-12-25T17:41:22.245Z,6.14
2022-12-25T17:43:59.263Z,6.10
2022-12-25T17:46:33.746Z,6.07
2022-12-25T17:49:01.657Z,6.05
2022-12-25T17:51:30.216Z,6.04
2022-12-25T17:54:02.541Z,6.05
2022-12-25T17:56:30.022Z,6.06
2022-12-25T17:58:59.645Z,6.06
2022-12-25T18:01:54.828Z,6.06
2022-12-25T18:04:36.414Z,6.05
2022-12-25T18:07:23.885Z,6.04
2022-12-25T18:10:03.409Z,6.01
2022-12-25T18:12:30.921Z,6.01
2022-12-25T18:15:25.989Z,5.99
2022-12-25T18:18:00.454Z,5.99
2022-12-25T18:20:29.525Z,5.99
2022-12-25T18:23:03.091Z,5.98
2022-12-25T18:25:35.849Z,5.98
2022-12-25T18:32:56.615Z,5.97
2022-12-25T18:36:16.148Z,5.95
2022-12-25T18:38:53.622Z,5.87
2022-12-25T18:41:23.741Z,5.93
2022-12-25T18:46:41.235Z,5.94
2022-12-25T18:47:57.619Z,5.90
2022-12-25T18:50:40.981Z,5.96
2022-12-25T18:53:18.557Z,5.98
2022-12-25T18:56:07.252Z,6.01
2022-12-25T18:58:37.570Z,6.00
2022-12-25T19:01:19.341Z,5.99
2022-12-25T19:03:48.232Z,5.99
2022-12-25T19:14:47.174Z,5.93
2022-12-25T19:17:41.536Z,5.91
2022-12-25T19:20:17.807Z,5.86
2022-12-25T19:22:47.990Z,5.94
2022-12-25T19:25:27.827Z,5.94
2022-12-25T19:28:18.286Z,5.99
2022-12-25T19:30:55.522Z,6.00
2022-12-25T19:33:22.778Z,6.01
2022-12-25T19:35:50.055Z,6.01
2022-12-25T19:38:22.200Z,6.00
2022-12-25T19:41:01.179Z,6.01
2022-12-25T19:43:31.062Z,6.03
2022-12-25T19:45:58.078Z,6.04
2022-12-25T19:48:25.181Z,6.05
2022-12-25T19:51:16.558Z,6.07
2022-12-25T19:53:47.203Z,6.07
2022-12-25T19:56:14.881Z,6.06
2022-12-25T19:58:41.720Z,6.03
2022-12-25T20:01:14.090Z,6.02
2022-12-25T20:04:36.659Z,6.01
2022-12-25T20:07:06.288Z,6.00
2022-12-25T20:09:33.068Z,5.99
2022-12-25T20:11:59.883Z,5.99
2022-12-25T20:14:27.023Z,5.98
2022-12-25T20:16:53.770Z,5.99
2022-12-25T20:19:20.677Z,5.97
2022-12-25T20:21:47.772Z,5.97
2022-12-25T20:24:15.105Z,5.97
2022-12-25T20:26:59.171Z,5.97
2022-12-25T20:29:26.481Z,5.99
2022-12-25T20:31:57.078Z,6.00
2022-12-25T20:34:24.154Z,6.01
2022-12-25T20:36:51.291Z,6.01
2022-12-25T20:39:18.321Z,6.01
2022-12-25T20:41:46.950Z,5.99
2022-12-25T20:44:15.757Z,5.98
2022-12-25T20:46:44.084Z,5.98
2022-12-25T20:49:12.994Z,5.96
2022-12-25T20:51:46.383Z,5.96
2022-12-25T20:54:43.262Z,5.97
2022-12-25T20:57:58.982Z,5.98
2022-12-25T21:00:27.314Z,5.97
2022-12-25T21:03:03.482Z,5.97
2022-12-25T21:06:13.175Z,5.97
2022-12-25T21:08:57.898Z,5.96
2022-12-25T21:14:08.480Z,5.99
2022-12-25T21:16:35.777Z,6.01
2022-12-25T21:19:13.027Z,6.01
2022-12-25T21:21:43.445Z,6.02
2022-12-25T21:24:44.881Z,6.01
2022-12-25T21:27:12.078Z,6.04
2022-12-25T21:30:22.884Z,6.04
2022-12-25T21:33:51.191Z,6.06
2022-12-25T21:36:33.231Z,6.07
2022-12-25T21:39:03.671Z,6.06
2022-12-25T21:41:33.005Z,6.08
2022-12-25T21:44:02.831Z,6.06
2022-12-25T21:46:59.744Z,6.05
2022-12-25T21:49:45.342Z,6.04
2022-12-25T21:52:12.237Z,6.04
2022-12-25T21:58:05.004Z,6.06
2022-12-25T22:00:32.121Z,6.06
2022-12-25T22:02:59.175Z,6.05
2022-12-25T22:05:44.855Z,6.05
2022-12-25T22:08:11.815Z,6.06
2022-12-25T22:10:38.973Z,6.07
2022-12-25T22:13:24.288Z,6.08
2022-12-25T22:16:09.763Z,6.08
2022-12-25T22:18:55.273Z,6.10
2022-12-25T22:21:22.281Z,6.09
2022-12-25T22:23:49.285Z,6.09
2022-12-25T22:26:20.823Z,6.10
2022-12-25T22:29:05.492Z,6.12
2022-12-25T22:31:40.855Z,6.14
2022-12-25T22:34:15.252Z,6.16
2022-12-25T22:36:44.753Z,6.17
2022-12-25T22:39:12.110Z,6.17
2022-12-25T22:41:39.141Z,6.15
2022-12-25T22:44:17.877Z,6.15
2022-12-25T22:46:45.888Z,6.15
2022-12-25T22:49:18.660Z,6.15
2022-12-25T22:51:51.216Z,6.15
2022-12-25T22:54:53.619Z,6.15
2022-12-25T22:57:40.731Z,6.15
2022-12-25T23:00:08.385Z,6.12
2022-12-25T23:02:35.544Z,6.10
2022-12-25T23:05:03.190Z,6.09
2022-12-25T23:07:30.208Z,6.10
2022-12-25T23:10:01.307Z,6.07
2022-12-25T23:16:24.164Z,6.14
2022-12-25T23:19:12.396Z,6.15
2022-12-25T23:22:00.442Z,6.15
2022-12-25T23:24:46.413Z,6.15
2022-12-25T23:27:14.076Z,6.14
2022-12-25T23:29:47.334Z,6.12
2022-12-25T23:32:22.165Z,6.18
2022-12-25T23:35:10.964Z,6.18
2022-12-25T23:45:10.757Z,6.16
2022-12-25T23:47:41.097Z,6.17
2022-12-25T23:50:11.299Z,6.19
2022-12-25T23:52:39.285Z,6.21
2022-12-25T23:55:11.580Z,6.24
2022-12-25T23:57:40.900Z,6.25
